Time;durP1;ratioP1;P1;durP2;ratioP2;P2;SDS_P1;SDS_P2;PMS_P1;PMS_P2;Temp;Humidity;BMP_temperature;BMP_pressure;BME280_temperature;BME280_humidity;BME280_pressure;Samples;Min_cycle;Max_cycle;Signal;HPM_P1;HPM_P2
2022/06/07 00:00:43;;;;;;;;;0.80;0.80;;;;;19.92;52.35;100957.75;4977001;28;45813;-52
2022/06/07 00:03:08;;;;;;;;;2.50;1.00;;;;;19.87;52.81;100954.97;4976763;28;45545;-54
2022/06/07 00:05:34;;;;;;;;;1.00;1.00;;;;;19.86;52.99;100958.00;4976938;28;46112;-54
2022/06/07 00:07:59;;;;;;;;;0.00;0.00;;;;;19.81;53.02;100947.69;4975166;28;45365;-51
2022/06/07 00:10:25;;;;;;;;;0.25;0.25;;;;;19.64;53.40;100914.44;4977243;28;45323;-54
2022/06/07 00:12:51;;;;;;;;;0.25;0.25;;;;;19.81;53.56;100949.63;4959267;28;45281;-54
2022/06/07 00:15:17;;;;;;;;;1.75;1.75;;;;;19.77;53.70;100949.31;4976358;28;45866;-54
2022/06/07 00:17:43;;;;;;;;;2.00;0.20;;;;;19.63;53.95;100924.75;4975335;28;45416;-55
2022/06/07 00:20:09;;;;;;;;;0.00;0.00;;;;;19.72;53.99;100936.22;4976627;28;45200;-55
2022/06/07 00:22:35;;;;;;;;;0.25;0.25;;;;;19.56;54.80;100940.00;4976959;28;45387;-51
2022/06/07 00:25:01;;;;;;;;;0.40;0.40;;;;;19.45;54.88;100936.31;4976373;28;45441;-52
2022/06/07 00:27:27;;;;;;;;;0.20;0.00;;;;;19.54;55.00;100939.44;4959328;28;45443;-52
2022/06/07 00:29:52;;;;;;;;;0.00;0.00;;;;;19.59;54.93;100933.91;4976694;28;45481;-51
2022/06/07 00:32:18;;;;;;;;;2.75;1.00;;;;;19.41;55.17;100905.38;4976566;28;45358;-55
2022/06/07 00:34:44;;;;;;;;;0.20;0.00;;;;;19.43;54.57;100899.56;4976412;28;45469;-56
2022/06/07 00:37:09;;;;;;;;;0.00;0.00;;;;;19.66;54.98;100930.88;4958421;28;45410;-49
2022/06/07 00:39:35;;;;;;;;;1.00;1.00;;;;;19.42;54.79;100900.66;4977813;28;45320;-55
2022/06/07 00:42:00;;;;;;;;;0.25;0.25;;;;;19.58;55.09;100924.69;4996106;28;45290;-55
2022/06/07 00:44:25;;;;;;;;;0.00;0.00;;;;;19.60;55.15;100927.22;4995928;28;46609;-52
2022/06/07 00:46:59;;;;;;;;;0.00;0.00;;;;;19.36;55.21;100895.06;4995895;28;45357;-53
2022/06/07 00:49:25;;;;;;;;;1.60;1.60;;;;;19.32;55.62;100891.13;5027865;28;45457;-48
2022/06/07 00:51:51;;;;;;;;;0.40;0.40;;;;;19.40;56.08;100912.06;5027785;28;45348;-53
2022/06/07 00:54:25;;;;;;;;;1.00;1.00;;;;;19.33;55.95;100906.72;4999087;28;46336;-55
2022/06/07 00:56:50;;;;;;;;;0.40;0.40;;;;;19.39;56.09;100912.31;4999228;28;45405;-55
2022/06/07 00:59:16;;;;;;;;;1.00;1.00;;;;;19.34;56.04;100900.06;4999255;28;45298;-53
2022/06/07 01:01:42;;;;;;;;;0.00;0.00;;;;;19.21;56.27;100875.50;4999914;28;45306;-50
2022/06/07 01:04:07;;;;;;;;;1.25;1.25;;;;;19.39;56.14;100902.03;4998896;28;46044;-52
2022/06/07 01:12:01;;;;;;;;;1.00;1.00;;;;;19.17;56.63;100860.41;4999749;28;45818;-55
2022/06/07 01:14:27;;;;;;;;;2.40;1.00;;;;;19.35;56.50;100893.38;4999129;28;46820;-52
2022/06/07 01:16:52;;;;;;;;;1.50;0.25;;;;;19.21;57.02;100886.63;4998798;28;45510;-49
2022/06/07 01:19:18;;;;;;;;;2.00;1.00;;;;;19.21;57.05;100881.06;4999057;28;45243;-55
2022/06/07 01:21:45;;;;;;;;;1.75;1.00;;;;;19.28;57.09;100891.94;4998938;28;45493;-56
2022/06/07 01:24:12;;;;;;;;;1.60;1.60;;;;;19.23;57.03;100884.41;4997352;28;45462;-54
2022/06/07 01:26:37;;;;;;;;;2.00;2.00;;;;;19.17;57.28;100877.13;4998841;28;45350;-52
2022/06/07 01:29:03;;;;;;;;;2.00;2.00;;;;;18.96;57.21;100855.50;4998783;28;45311;-56
2022/06/07 01:31:29;;;;;;;;;1.00;1.00;;;;;19.22;57.15;100875.19;4999169;28;45511;-50
2022/06/07 01:33:54;;;;;;;;;1.00;1.00;;;;;19.26;57.02;100888.59;5029885;28;45516;-52
2022/06/07 01:36:19;;;;;;;;;3.00;2.00;;;;;19.29;56.94;100885.25;4998967;28;45376;-55
2022/06/07 01:41:53;;;;;;;;;2.00;2.00;;;;;19.32;56.89;100885.56;4998357;28;45420;-52
2022/06/07 01:44:15;;;;;;;;;2.00;2.00;;;;;19.30;57.05;100885.00;4979102;28;45310;-51
2022/06/07 01:46:41;;;;;;;;;1.00;1.00;;;;;19.30;57.41;100884.16;4978057;28;45337;-57
2022/06/07 01:49:06;;;;;;;;;0.50;0.50;;;;;19.32;57.18;100884.75;4979315;28;45327;-49
2022/06/07 01:51:31;;;;;;;;;2.00;2.00;;;;;19.29;57.45;100880.53;4979431;28;45603;-52
2022/06/07 01:53:57;;;;;;;;;1.00;1.00;;;;;19.37;57.06;100881.97;4978650;28;46428;-53
2022/06/07 01:56:23;;;;;;;;;1.50;1.50;;;;;19.25;57.53;100854.34;4979183;28;45212;-54
2022/06/07 01:58:48;;;;;;;;;2.75;2.00;;;;;19.36;57.30;100875.59;4978688;28;45255;-51
2022/06/07 02:01:14;;;;;;;;;0.50;0.50;;;;;19.19;57.28;100847.94;4975426;28;45973;-51
2022/06/07 02:03:40;;;;;;;;;1.00;1.00;;;;;19.36;57.41;100871.94;4993617;28;47670;-54
2022/06/07 02:06:11;;;;;;;;;1.20;1.20;;;;;19.32;57.02;100863.31;4995213;28;45466;-53
2022/06/07 02:08:36;;;;;;;;;3.60;1.60;;;;;19.33;57.30;100862.19;4997567;28;45311;-50
2022/06/07 02:11:06;;;;;;;;;2.00;2.00;;;;;19.34;57.29;100866.69;4997585;28;45544;-51
2022/06/07 02:13:32;;;;;;;;;1.40;1.40;;;;;19.30;57.57;100853.53;4997476;28;46380;-53
2022/06/07 02:15:57;;;;;;;;;0.75;0.75;;;;;19.29;57.69;100855.50;4995183;28;45390;-55
2022/06/07 02:18:23;;;;;;;;;1.00;1.00;;;;;19.34;57.38;100863.88;4994307;28;45406;-50
2022/06/07 02:20:48;;;;;;;;;2.00;2.00;;;;;19.13;57.26;100823.97;4998675;28;45504;-53
2022/06/07 02:23:14;;;;;;;;;2.25;1.00;;;;;19.34;57.55;100852.75;4997998;28;45570;-55
2022/06/07 02:25:43;;;;;;;;;1.00;1.00;;;;;19.30;57.67;100850.75;4998466;28;45310;-51
2022/06/07 02:28:12;;;;;;;;;1.40;1.40;;;;;19.26;57.58;100835.72;5013017;28;45370;-54
2022/06/07 02:30:39;;;;;;;;;1.40;1.40;;;;;19.31;58.10;100842.16;4997472;28;45626;-53
2022/06/07 02:33:05;;;;;;;;;1.60;1.60;;;;;19.27;57.53;100843.81;5029524;28;46643;-55
2022/06/07 02:35:30;;;;;;;;;3.00;1.00;;;;;19.20;57.73;100841.25;4997034;28;45952;-55
2022/06/07 02:37:56;;;;;;;;;1.50;1.50;;;;;19.21;58.12;100830.97;4997926;28;45310;-54
2022/06/07 02:40:21;;;;;;;;;2.00;2.00;;;;;19.19;58.10;100828.44;4995127;28;45339;-54
2022/06/07 02:42:47;;;;;;;;;1.00;1.00;;;;;19.20;58.18;100832.06;4978056;28;46438;-51
2022/06/07 02:45:12;;;;;;;;;2.50;2.00;;;;;19.11;57.97;100812.28;4976566;28;45434;-54
2022/06/07 02:47:37;;;;;;;;;2.00;1.00;;;;;19.16;58.18;100822.59;4978473;28;45367;-51
2022/06/07 02:50:03;;;;;;;;;1.00;1.00;;;;;18.98;58.02;100796.03;4977936;28;45541;-51
2022/06/07 02:52:29;;;;;;;;;3.00;3.00;;;;;19.12;57.96;100818.66;4977516;28;46198;-50
2022/06/07 02:54:54;;;;;;;;;1.00;1.00;;;;;18.96;58.42;100785.16;4976661;28;45739;-53
2022/06/07 02:57:20;;;;;;;;;2.00;2.00;;;;;19.19;58.40;100810.91;4977981;28;45327;-53
2022/06/07 02:59:45;;;;;;;;;3.75;2.75;;;;;19.02;58.03;100788.78;4976886;28;45550;-54
2022/06/07 03:02:11;;;;;;;;;1.50;1.50;;;;;19.13;58.32;100812.84;4977786;28;45921;-56
2022/06/07 03:04:36;;;;;;;;;4.50;4.50;;;;;19.06;58.85;100806.66;4977598;28;45469;-55
2022/06/07 03:07:04;;;;;;;;;3.00;3.00;;;;;18.83;59.01;100759.47;4977920;28;45429;-54
2022/06/07 03:09:30;;;;;;;;;3.20;3.20;;;;;19.07;58.48;100809.19;4977670;28;45430;-54
2022/06/07 03:11:56;;;;;;;;;2.00;2.00;;;;;19.08;58.59;100804.44;4976414;28;46223;-56
2022/06/07 03:14:21;;;;;;;;;3.80;3.80;;;;;19.09;58.73;100801.41;4976912;28;45332;-52
2022/06/07 03:16:47;;;;;;;;;2.00;2.00;;;;;19.13;58.85;100800.84;4975747;28;45305;-55
2022/06/07 03:19:12;;;;;;;;;3.25;2.75;;;;;19.02;58.63;100786.91;4977814;28;45331;-55
2022/06/07 03:21:39;;;;;;;;;1.50;1.50;;;;;19.17;58.48;100804.78;4976260;28;45796;-54
2022/06/07 03:24:06;;;;;;;;;2.00;2.00;;;;;19.20;58.68;100805.09;4977492;28;45338;-55
2022/06/07 03:26:31;;;;;;;;;3.20;2.00;;;;;19.13;59.03;100800.84;4977545;28;45391;-51
2022/06/07 03:28:57;;;;;;;;;2.00;2.00;;;;;18.96;59.10;100787.94;4977621;28;45356;-53
2022/06/07 03:31:22;;;;;;;;;2.00;2.00;;;;;19.04;59.49;100809.72;4976016;28;45657;-54
2022/06/07 03:33:48;;;;;;;;;2.75;2.75;;;;;18.92;59.65;100800.69;4977072;28;45326;-51
2022/06/07 03:36:20;;;;;;;;;4.50;3.00;;;;;18.99;59.55;100801.28;4977566;28;45407;-55
2022/06/07 03:38:46;;;;;;;;;1.60;1.60;;;;;19.05;59.47;100807.78;4977443;28;45481;-55
2022/06/07 03:41:15;;;;;;;;;2.50;2.50;;;;;18.96;59.63;100787.94;4956807;28;46377;-52
2022/06/07 03:43:41;;;;;;;;;2.20;2.20;;;;;18.99;59.80;100800.47;4975842;28;45413;-55
2022/06/07 03:46:08;;;;;;;;;2.00;2.00;;;;;18.89;60.04;100799.28;4977527;28;45256;-56
2022/06/07 03:48:34;;;;;;;;;3.00;2.00;;;;;18.86;60.06;100785.06;4977614;28;45489;-56
2022/06/07 03:50:59;;;;;;;;;3.00;2.00;;;;;18.96;59.94;100801.84;4977367;28;45947;-53
2022/06/07 03:53:25;;;;;;;;;2.50;2.25;;;;;18.90;60.47;100805.69;4977320;28;45543;-48
2022/06/07 03:55:52;;;;;;;;;2.25;2.25;;;;;18.94;60.28;100806.84;4976829;28;45432;-54
2022/06/07 03:58:18;;;;;;;;;4.40;3.40;;;;;18.96;60.15;100808.22;4976438;28;45376;-50
2022/06/07 04:00:44;;;;;;;;;3.00;2.00;;;;;18.97;59.98;100803.50;4976576;28;46325;-56
2022/06/07 04:03:09;;;;;;;;;2.25;2.25;;;;;18.97;60.36;100809.06;4975834;28;45404;-53
2022/06/07 04:05:41;;;;;;;;;4.00;3.75;;;;;18.86;60.31;100793.41;4975623;28;45477;-51
2022/06/07 04:08:13;;;;;;;;;3.60;3.60;;;;;18.80;60.39;100787.81;4977412;28;45430;-52
2022/06/07 04:10:49;;;;;;;;;1.60;1.00;;;;;19.04;60.82;100815.28;4975587;28;47521;-51
2022/06/07 04:13:14;;;;;;;;;3.40;2.20;;;;;19.02;61.19;100813.81;4977087;28;45367;-54
2022/06/07 04:15:41;;;;;;;;;2.25;2.25;;;;;18.99;62.10;100812.41;4976823;28;45290;-55
2022/06/07 04:18:07;;;;;;;;;3.60;3.60;;;;;18.77;62.68;100802.25;4977173;28;45534;-51
2022/06/07 04:20:32;;;;;;;;;3.60;3.40;;;;;18.77;63.59;100809.75;4975583;28;45461;-54
2022/06/07 04:22:58;;;;;;;;;2.75;2.75;;;;;18.81;63.24;100817.31;4976612;28;45382;-53
2022/06/07 04:25:23;;;;;;;;;2.25;2.25;;;;;18.63;63.51;100776.84;4975358;28;45433;-55
2022/06/07 04:27:49;;;;;;;;;5.00;3.25;;;;;18.85;63.62;100813.97;4975684;28;45369;-53
2022/06/07 04:30:14;;;;;;;;;3.75;3.00;;;;;18.59;63.52;100775.72;4976775;28;46751;-54
2022/06/07 04:32:46;;;;;;;;;3.25;3.25;;;;;18.78;63.64;100817.81;4976874;28;45381;-52
2022/06/07 04:35:12;;;;;;;;;4.00;4.00;;;;;18.86;63.85;100819.28;4976946;28;45402;-53
2022/06/07 04:37:37;;;;;;;;;2.60;2.60;;;;;18.63;64.60;100770.47;4977124;28;45351;-52
2022/06/07 04:40:03;;;;;;;;;4.00;2.50;;;;;18.77;64.84;100805.03;4975893;28;46387;-51
2022/06/07 04:42:29;;;;;;;;;2.00;2.00;;;;;18.71;65.03;100789.41;4990134;28;45818;-55
2022/06/07 04:44:54;;;;;;;;;3.00;3.00;;;;;18.82;65.06;100805.09;4972003;28;45479;-49
2022/06/07 04:47:20;;;;;;;;;3.00;3.00;;;;;18.79;65.07;100811.16;4975795;28;45330;-52
2022/06/07 04:49:46;;;;;;;;;3.75;2.50;;;;;18.61;65.94;100781.00;4976342;28;45804;-57
2022/06/07 04:52:11;;;;;;;;;4.00;3.00;;;;;18.80;65.44;100806.44;4976265;28;45248;-54
2022/06/07 04:54:36;;;;;;;;;3.00;3.00;;;;;18.83;65.78;100815.09;4976729;28;45310;-50
2022/06/07 04:57:02;;;;;;;;;5.25;4.25;;;;;18.61;65.90;100773.50;4975093;28;45530;-49
2022/06/07 04:59:28;;;;;;;;;5.50;3.50;;;;;18.80;65.79;100801.72;4976376;28;45374;-53
2022/06/07 05:01:53;;;;;;;;;3.00;3.00;;;;;18.87;65.51;100811.75;4976417;28;45396;-52
2022/06/07 05:04:19;;;;;;;;;5.00;5.00;;;;;18.80;65.90;100800.88;4976675;28;45418;-53
2022/06/07 05:06:45;;;;;;;;;4.25;4.00;;;;;18.81;66.09;100806.19;4975423;28;45346;-50
2022/06/07 05:09:17;;;;;;;;;3.00;3.00;;;;;18.79;65.97;100804.78;4976034;28;46239;-51
2022/06/07 05:11:46;;;;;;;;;4.00;3.40;;;;;18.62;66.17;100783.50;4959253;28;45378;-52
2022/06/07 05:14:11;;;;;;;;;2.00;2.00;;;;;18.82;65.72;100816.19;4976231;28;45342;-53
2022/06/07 05:16:37;;;;;;;;;2.00;2.00;;;;;18.62;65.65;100779.91;4975373;28;45337;-53
2022/06/07 05:19:03;;;;;;;;;2.40;2.40;;;;;18.80;66.04;100812.81;4975894;28;45628;-51
2022/06/07 05:21:28;;;;;;;;;3.25;3.00;;;;;18.77;65.57;100809.75;4975716;28;45368;-56
2022/06/07 05:23:54;;;;;;;;;5.00;3.25;;;;;18.74;65.73;100813.91;4976433;28;45406;-55
2022/06/07 05:26:33;;;;;;;;;3.25;3.25;;;;;18.74;65.76;100816.69;4974752;28;45447;-55
2022/06/07 05:28:59;;;;;;;;;2.80;2.80;;;;;18.76;65.85;100817.25;4974914;28;45829;-57
2022/06/07 05:31:24;;;;;;;;;4.25;2.75;;;;;18.75;65.71;100806.41;4975700;28;45207;-53
2022/06/07 05:33:50;;;;;;;;;2.00;2.00;;;;;18.80;65.84;100809.22;4975121;28;45235;-54
2022/06/07 05:36:16;;;;;;;;;6.00;4.80;;;;;18.89;65.71;100821.53;4975974;28;45482;-54
2022/06/07 05:38:42;;;;;;;;;6.00;6.00;;;;;18.90;65.72;100809.28;4975509;28;45538;-50
2022/06/07 05:41:10;;;;;;;;;8.40;7.20;;;;;18.87;65.38;100806.19;4983023;28;45334;-53
2022/06/07 05:43:36;;;;;;;;;7.00;7.00;;;;;18.94;65.58;100823.53;4997573;28;45372;-50
2022/06/07 05:46:02;;;;;;;;;4.00;4.00;;;;;18.89;65.01;100823.47;4998819;28;45532;-50
2022/06/07 05:48:28;;;;;;;;;5.25;5.25;;;;;18.89;65.43;100824.31;4998344;28;45318;-53
2022/06/07 05:50:54;;;;;;;;;4.00;2.60;;;;;18.82;65.23;100827.31;4998929;28;45354;-54
2022/06/07 05:53:20;;;;;;;;;3.25;3.25;;;;;18.62;64.93;100788.25;4960000;28;45771;-53
2022/06/07 05:55:46;;;;;;;;;6.50;6.50;;;;;18.77;65.02;100798.63;4978732;28;45506;-54
2022/06/07 05:58:11;;;;;;;;;3.20;3.20;;;;;18.92;65.04;100828.50;4977615;28;46784;-52
2022/06/07 06:00:38;;;;;;;;;4.50;2.25;;;;;18.89;64.34;100829.88;4977099;28;45376;-54
2022/06/07 06:03:05;;;;;;;;;2.40;2.00;;;;;18.83;65.15;100820.66;4977775;28;45392;-56
2022/06/07 06:05:31;;;;;;;;;2.20;2.20;;;;;18.87;64.78;100820.09;4977352;28;45437;-54
2022/06/07 06:10:40;;;;;;;;;2.00;2.00;;;;;18.80;64.38;100837.03;4978197;28;45184;-53
2022/06/07 06:13:06;;;;;;;;;1.50;1.50;;;;;18.67;64.98;100829.94;4977609;28;45650;-53
2022/06/07 06:15:31;;;;;;;;;3.50;2.25;;;;;18.66;64.96;100831.06;4978686;28;45411;-51
2022/06/07 06:17:57;;;;;;;;;3.25;2.50;;;;;18.72;64.93;100841.13;4978376;28;45972;-49
2022/06/07 06:20:23;;;;;;;;;2.75;2.75;;;;;18.70;65.28;100833.03;4978281;28;45390;-54
2022/06/07 06:22:48;;;;;;;;;1.50;1.50;;;;;18.74;65.62;100838.94;4977361;28;45422;-53
2022/06/07 06:25:14;;;;;;;;;5.00;4.60;;;;;18.80;65.27;100842.59;4978829;28;45227;-53
2022/06/07 06:27:39;;;;;;;;;2.00;2.00;;;;;18.80;64.98;100848.16;4978125;28;46918;-56
2022/06/07 06:30:06;;;;;;;;;2.50;2.50;;;;;18.78;65.54;100847.59;4978124;28;45286;-54
2022/06/07 06:32:32;;;;;;;;;3.00;3.00;;;;;18.82;65.62;100857.91;4977032;28;45383;-51
2022/06/07 06:34:57;;;;;;;;;4.00;2.75;;;;;18.89;66.05;100860.44;4978525;28;45353;-57
2022/06/07 06:37:23;;;;;;;;;1.50;1.50;;;;;18.95;65.90;100859.38;4977724;28;46105;-49
2022/06/07 06:39:48;;;;;;;;;3.00;3.00;;;;;18.94;65.64;100854.13;4976733;28;45420;-56
2022/06/07 06:42:14;;;;;;;;;0.00;0.00;;;;;18.96;65.75;100851.91;4991907;28;45396;-59
2022/06/07 06:44:39;;;;;;;;;2.00;2.00;;;;;18.82;65.78;100848.72;4996874;28;45427;-54
2022/06/07 06:47:05;;;;;;;;;2.25;2.25;;;;;18.59;66.34;100824.88;4997639;28;45729;-53
2022/06/07 06:49:32;;;;;;;;;2.00;2.00;;;;;18.82;65.97;100857.06;4995721;28;45855;-53
2022/06/07 06:51:59;;;;;;;;;3.20;3.20;;;;;18.93;66.47;100872.72;5028765;28;45378;-54
2022/06/07 06:54:24;;;;;;;;;2.80;2.80;;;;;18.76;66.96;100864.53;4997914;28;45582;-55
2022/06/07 06:56:50;;;;;;;;;4.75;3.00;;;;;18.83;67.13;100853.16;4997445;28;45707;-52
2022/06/07 06:59:16;;;;;;;;;1.75;1.75;;;;;18.83;66.22;100853.16;5029614;28;45390;-54
2022/06/07 07:01:41;;;;;;;;;2.80;2.00;;;;;18.95;66.18;100870.50;4997570;28;45499;-53
2022/06/07 07:04:17;;;;;;;;;2.50;2.50;;;;;19.00;66.12;100875.28;4997797;28;45635;-55
2022/06/07 07:06:45;;;;;;;;;2.00;2.00;;;;;18.92;66.77;100865.50;4997383;28;46191;-53
2022/06/07 07:09:11;;;;;;;;;3.00;1.40;;;;;19.00;65.84;100878.06;4997618;28;45414;-56
2022/06/07 07:11:38;;;;;;;;;1.00;1.00;;;;;18.94;66.04;100879.16;5029548;28;45318;-54
2022/06/07 07:14:03;;;;;;;;;4.40;2.40;;;;;18.95;65.93;100873.28;4997518;28;45152;-49
2022/06/07 07:16:32;;;;;;;;;2.75;2.75;;;;;18.89;65.68;100866.00;4997475;28;46195;-52
2022/06/07 07:18:59;;;;;;;;;2.40;1.40;;;;;18.89;65.59;100870.75;4983056;28;45354;-57
2022/06/07 07:21:27;;;;;;;;;1.40;1.20;;;;;18.74;65.67;100852.84;5013903;28;45472;-51
2022/06/07 07:23:53;;;;;;;;;3.40;2.00;;;;;18.87;65.74;100879.34;4997431;28;45208;-59
2022/06/07 07:26:20;;;;;;;;;1.00;1.00;;;;;18.85;65.35;100855.69;4996757;28;45686;-50
2022/06/07 07:28:46;;;;;;;;;1.40;1.40;;;;;18.95;65.12;100881.63;4995739;28;45922;-47
2022/06/07 07:31:17;;;;;;;;;1.75;1.75;;;;;18.87;65.12;100871.00;5011742;28;45424;-53
2022/06/07 07:33:43;;;;;;;;;1.20;1.20;;;;;18.89;64.72;100868.78;4997345;28;45320;-59
2022/06/07 07:36:08;;;;;;;;;5.00;3.25;;;;;18.93;64.68;100869.94;4934376;28;46522;-63
2022/06/07 07:38:34;;;;;;;;;0.25;0.25;;;;;18.93;63.56;100878.28;4969611;28;45513;-49
2022/06/07 07:41:00;;;;;;;;;1.00;1.00;;;;;18.98;62.84;100873.88;4971078;28;45658;-53
2022/06/07 07:43:26;;;;;;;;;2.00;1.00;;;;;18.89;62.89;100863.22;4973901;28;45498;-50
2022/06/07 07:45:53;;;;;;;;;1.00;1.00;;;;;19.04;62.88;100884.81;4972521;28;46181;-52
2022/06/07 07:48:18;;;;;;;;;0.00;0.00;;;;;19.01;62.72;100867.78;4972261;28;45383;-53
2022/06/07 07:50:44;;;;;;;;;1.00;1.00;;;;;19.13;62.69;100868.47;4970373;28;45852;-54
2022/06/07 07:53:10;;;;;;;;;1.75;1.75;;;;;19.15;63.08;100871.00;4972324;28;45539;-57
2022/06/07 07:55:36;;;;;;;;;1.00;1.00;;;;;19.27;62.77;100874.41;4987863;28;46474;-54
2022/06/07 07:58:01;;;;;;;;;1.00;1.00;;;;;19.36;63.00;100885.88;4989154;28;45486;-55
2022/06/07 08:00:28;;;;;;;;;3.25;2.00;;;;;19.37;62.81;100885.59;4991914;28;45427;-51
2022/06/07 08:02:54;;;;;;;;;1.00;1.00;;;;;19.21;63.23;100872.72;4990759;28;45390;-53
2022/06/07 08:05:20;;;;;;;;;2.20;1.60;;;;;19.33;63.34;100880.84;4991484;28;46677;-51
2022/06/07 08:07:46;;;;;;;;;2.25;2.25;;;;;19.45;63.00;100883.41;4974385;28;45458;-51
2022/06/07 08:10:11;;;;;;;;;4.25;2.25;;;;;19.40;62.89;100883.38;4972441;28;45967;-54
2022/06/07 08:12:36;;;;;;;;;1.75;1.75;;;;;19.12;62.87;100829.78;4971410;28;45444;-50
2022/06/07 08:15:02;;;;;;;;;1.00;1.00;;;;;19.44;62.35;100881.75;4972377;28;46147;-54
2022/06/07 08:17:28;;;;;;;;;2.00;2.00;;;;;19.39;62.96;100876.13;4972070;28;45586;-56
2022/06/07 08:19:53;;;;;;;;;4.75;2.00;;;;;19.56;62.60;100890.72;4954828;28;45480;-59
2022/06/07 08:22:20;;;;;;;;;2.00;2.00;;;;;19.50;62.37;100850.91;4953157;28;45453;-52
2022/06/07 08:24:46;;;;;;;;;1.20;1.20;;;;;19.84;61.49;100883.06;4970598;28;45579;-51
2022/06/07 08:27:11;;;;;;;;;2.50;2.00;;;;;19.59;61.10;100833.69;4972203;28;45943;-51
2022/06/07 08:29:38;;;;;;;;;3.00;2.00;;;;;19.95;61.27;100872.00;4972149;28;45429;-53
2022/06/07 08:32:04;;;;;;;;;2.00;2.00;;;;;19.83;60.72;100870.28;4986176;28;45445;-56
2022/06/07 08:39:57;;;;;;;;;2.00;2.00;;;;;19.97;60.38;100853.09;4971394;28;45731;-56
2022/06/07 08:42:54;;;;;;;;;1.50;1.50;;;;;20.11;59.94;100870.97;4971218;28;46012;-56
2022/06/07 08:45:26;;;;;;;;;2.00;2.00;;;;;19.97;59.56;100859.50;4968957;28;45927;-55
2022/06/07 08:48:13;;;;;;;;;3.60;1.00;;;;;19.90;59.79;100859.72;4954151;28;45535;-51
2022/06/07 08:51:11;;;;;;;;;0.80;0.80;;;;;19.99;59.79;100862.00;4971717;28;45627;-52
2022/06/07 08:53:39;;;;;;;;;2.20;2.00;;;;;19.91;59.11;100830.75;4956458;28;45935;-59
2022/06/07 08:56:08;;;;;;;;;1.00;1.00;;;;;20.00;58.66;100869.25;4953962;28;45898;-58
2022/06/07 08:58:42;;;;;;;;;1.40;1.40;;;;;19.96;59.64;100865.34;4963745;28;45379;-51
2022/06/07 09:01:29;;;;;;;;;1.40;0.80;;;;;19.95;58.97;100872.00;4980552;28;45411;-54
2022/06/07 09:04:01;;;;;;;;;2.40;2.40;;;;;19.96;59.41;100868.13;4983901;28;45492;-55
2022/06/07 09:06:31;;;;;;;;;0.20;0.20;;;;;19.92;59.10;100868.63;4991327;28;45565;-61
2022/06/07 09:08:58;;;;;;;;;0.00;0.00;;;;;19.90;58.28;100859.72;4991438;28;45528;-54
2022/06/07 09:14:22;;;;;;;;;1.20;1.20;;;;;19.98;57.14;100835.25;4973317;28;45728;-57
2022/06/07 09:16:47;;;;;;;;;0.00;0.00;;;;;20.25;55.84;100864.88;4991064;28;46349;-57
2022/06/07 09:19:19;;;;;;;;;1.00;1.00;;;;;20.21;56.02;100861.78;5026556;28;45507;-57
2022/06/07 09:21:45;;;;;;;;;0.80;0.80;;;;;20.44;55.04;100868.00;4994792;28;45458;-59
2022/06/07 09:24:25;;;;;;;;;0.00;0.00;;;;;20.51;54.67;100854.63;4981158;28;45402;-59
2022/06/07 09:26:50;;;;;;;;;1.20;0.60;;;;;20.58;54.48;100846.81;4973751;28;45780;-58
2022/06/07 09:29:21;;;;;;;;;0.00;0.00;;;;;20.62;54.84;100854.63;4975188;28;45693;-54
2022/06/07 09:31:47;;;;;;;;;1.40;1.40;;;;;20.35;54.63;100823.09;4941932;28;45366;-57
2022/06/07 09:34:29;;;;;;;;;4.00;1.00;;;;;20.38;54.20;100847.63;4957836;28;45635;-57
2022/06/07 09:37:03;;;;;;;;;0.20;0.20;;;;;20.29;53.22;100824.22;4973545;28;46146;-60
2022/06/07 09:39:32;;;;;;;;;1.40;1.00;;;;;20.58;52.51;100845.97;4974516;28;45409;-57
2022/06/07 09:42:18;;;;;;;;;0.20;0.20;;;;;20.59;51.58;100847.66;4980075;28;45792;-58
2022/06/07 09:45:19;;;;;;;;;0.40;0.00;;;;;20.50;52.03;100838.16;5007743;28;45638;-55
2022/06/07 09:47:44;;;;;;;;;0.20;0.20;;;;;20.58;51.65;100843.19;5002930;28;46163;-60
2022/06/07 09:50:31;;;;;;;;;0.50;0.50;;;;;20.38;52.12;100796.63;4973194;28;45454;-60
2022/06/07 09:52:59;;;;;;;;;0.00;0.00;;;;;20.77;52.55;100851.00;4937457;28;45517;-59
2022/06/07 09:55:33;;;;;;;;;1.80;0.60;;;;;20.76;52.40;100858.53;4970055;28;45753;-59
2022/06/07 09:57:59;;;;;;;;;0.60;0.00;;;;;20.80;52.10;100842.06;4963502;28;47261;-54
2022/06/07 10:00:27;;;;;;;;;1.00;0.00;;;;;20.82;52.29;100843.47;4972939;28;45645;-56
2022/06/07 10:02:56;;;;;;;;;0.00;0.00;;;;;20.81;51.31;100849.34;4974809;28;45810;-58
2022/06/07 10:06:11;;;;;;;;;0.20;0.00;;;;;20.75;51.84;100854.06;4974773;28;45311;-55
2022/06/07 10:08:48;;;;;;;;;0.00;0.00;;;;;20.99;51.07;100834.03;4916256;28;45578;-55
2022/06/07 10:11:41;;;;;;;;;0.40;0.40;;;;;21.13;51.00;100835.13;4971619;28;45422;-53
2022/06/07 10:14:09;;;;;;;;;2.00;0.40;;;;;21.19;50.45;100833.16;4974340;28;45863;-52
2022/06/07 10:16:35;;;;;;;;;2.00;0.20;;;;;21.28;51.28;100840.97;4974728;28;45537;-52
2022/06/07 10:19:19;;;;;;;;;1.00;1.00;;;;;21.42;50.47;100832.81;4972376;28;48385;-53
2022/06/07 10:22:18;;;;;;;;;0.60;0.00;;;;;21.55;49.88;100840.59;4956901;28;45894;-58
2022/06/07 10:25:05;;;;;;;;;0.00;0.00;;;;;21.41;49.37;100837.59;4966975;28;45523;-57
2022/06/07 10:27:34;;;;;;;;;0.40;0.40;;;;;21.23;48.87;100841.78;4974596;28;45525;-58
2022/06/07 10:30:16;;;;;;;;;0.00;0.00;;;;;21.17;49.43;100840.16;4972369;28;46572;-57
2022/06/07 10:33:08;;;;;;;;;1.20;0.00;;;;;21.15;49.79;100842.38;4973041;28;45504;-56
2022/06/07 10:35:41;;;;;;;;;1.00;1.00;;;;;21.19;50.22;100849.88;4959854;28;45495;-53
2022/06/07 10:38:35;;;;;;;;;2.20;0.80;;;;;20.89;50.55;100812.56;4972564;28;45406;-58
2022/06/07 10:41:26;;;;;;;;;2.40;2.40;;;;;20.97;50.41;100816.75;4972874;28;45822;-55
2022/06/07 10:43:59;;;;;;;;;0.00;0.00;;;;;20.90;50.32;100793.84;4992062;28;45412;-53
2022/06/07 10:46:25;;;;;;;;;1.80;0.80;;;;;20.99;50.43;100804.16;5025202;28;45572;-54
2022/06/07 10:48:54;;;;;;;;;0.75;0.75;;;;;21.15;48.89;100834.84;5014169;28;45450;-58
2022/06/07 10:54:55;;;;;;;;;0.00;0.00;;;;;21.50;49.02;100829.47;5012863;28;45845;-55
2022/06/07 10:57:43;;;;;;;;;1.20;1.20;;;;;21.72;48.68;100825.50;4949060;28;45564;-56
2022/06/07 11:01:07;;;;;;;;;0.00;0.00;;;;;21.74;48.97;100826.91;4945719;28;45436;-58
2022/06/07 11:04:01;;;;;;;;;0.40;0.00;;;;;21.48;49.08;100806.56;4935494;28;45576;-58
2022/06/07 11:09:47;;;;;;;;;2.40;1.40;;;;;21.11;49.63;100811.41;4956808;28;45489;-58
2022/06/07 11:12:21;;;;;;;;;0.40;0.40;;;;;21.12;49.65;100827.03;4972658;28;45383;-56
2022/06/07 11:15:16;;;;;;;;;0.80;0.80;;;;;20.99;49.46;100789.41;4956401;28;45849;-59
2022/06/07 11:18:05;;;;;;;;;0.00;0.00;;;;;21.46;49.68;100831.97;4965394;28;45581;-57
2022/06/07 11:20:32;;;;;;;;;0.00;0.00;;;;;21.62;49.21;100818.78;4973099;28;45756;-62
2022/06/07 11:23:02;;;;;;;;;0.00;0.00;;;;;21.76;48.79;100835.81;4972049;28;45983;-59
2022/06/07 11:25:41;;;;;;;;;0.00;0.00;;;;;21.84;48.51;100806.47;4971854;28;45454;-61
2022/06/07 11:28:14;;;;;;;;;2.00;0.00;;;;;22.05;47.65;100814.72;4972160;28;45833;-59
2022/06/07 11:30:42;;;;;;;;;0.00;0.00;;;;;22.19;48.01;100818.56;4971447;28;45495;-57
2022/06/07 11:33:32;;;;;;;;;1.40;1.00;;;;;22.11;46.40;100826.72;4956166;28;45683;-53
2022/06/07 11:36:31;;;;;;;;;0.60;0.60;;;;;21.91;45.92;100809.78;4972083;28;45422;-61
2022/06/07 11:38:58;;;;;;;;;0.20;0.00;;;;;21.44;45.60;100722.53;4949857;28;45921;-61
2022/06/07 11:41:42;;;;;;;;;0.80;0.80;;;;;22.16;45.81;100809.91;4973007;28;45510;-57
2022/06/07 11:44:08;;;;;;;;;0.00;0.00;;;;;22.31;44.84;100815.41;4992395;28;45499;-54
2022/06/07 11:46:33;;;;;;;;;0.00;0.00;;;;;22.40;44.84;100814.81;4992787;28;45458;-56
2022/06/07 11:49:20;;;;;;;;;1.50;0.00;;;;;22.31;44.26;100814.59;4970629;28;45423;-51
2022/06/07 11:52:13;;;;;;;;;0.20;0.20;;;;;22.37;44.59;100810.63;4969685;28;45377;-49
2022/06/07 11:54:50;;;;;;;;;0.00;0.00;;;;;22.52;43.85;100823.66;4953165;28;45672;-56
2022/06/07 11:57:30;;;;;;;;;1.00;0.00;;;;;22.53;43.89;100782.56;4990779;28;46104;-52
2022/06/07 12:00:17;;;;;;;;;0.00;0.00;;;;;22.65;43.07;100815.75;4982524;28;45379;-55